Prt Angeles, Washington
Current Conditions -  °F | °C
As of 10:53 PM on Wednesday 22 Oct 2014 (Local Time) from KUIL Reporting Station
Broken Clouds Broken Clouds  
Wind Chill: 50°   Ceiling: 4300
Heat Index: 50°   Visibility: 8mi
Dew Point: 49°   Wind: 7mph
Humidity: 96%   Direction: 230°SW
Pressure: 29.61"   Gusts: NA
Location:  47.9555°N, 123.813°W
Report Text: KUIL 230553Z AUTO 23006KT 8SM FEW021 SCT037 BKN043 10/09 A2961 RMK AO2 RAB17E49 SLP028 P0025 60058 T01000094 10122 20100 53016
Loading
Personal Weather Stations






























Interactive Weather Map
Tropical Storm Tracking
New forecast layout! Learn more

10-Day Weather Forecast

Advertisements
Track Severe Weather on mobile